createdAt,value
2018-09-25T00:02:02.594Z,6.00
2018-09-25T00:04:36.129Z,6.00
2018-09-25T00:07:09.708Z,6.10
2018-09-25T00:09:43.209Z,6.00
2018-09-25T00:12:16.861Z,6.10
2018-09-25T00:14:50.532Z,6.10
2018-09-25T00:17:24.057Z,5.90
2018-09-25T00:19:57.683Z,5.70
2018-09-25T00:22:31.345Z,5.70
2018-09-25T00:25:05.289Z,5.60
2018-09-25T00:27:38.876Z,5.70
2018-09-25T00:30:12.552Z,5.70
2018-09-25T00:32:46.138Z,5.60
2018-09-25T00:35:19.645Z,5.70
2018-09-25T00:37:53.333Z,5.60
2018-09-25T00:40:26.757Z,5.50
2018-09-25T00:43:00.476Z,5.60
2018-09-25T00:45:33.826Z,5.40
2018-09-25T00:48:07.612Z,5.40
2018-09-25T00:50:41.173Z,5.50
2018-09-25T00:53:14.678Z,5.50
2018-09-25T00:55:48.255Z,5.30
2018-09-25T00:58:21.893Z,5.10
2018-09-25T01:00:55.569Z,5.00
2018-09-25T01:03:29.101Z,5.00
2018-09-25T01:06:02.630Z,5.00
2018-09-25T01:08:36.353Z,5.00
2018-09-25T01:11:10.040Z,5.00
2018-09-25T01:13:43.750Z,5.00
2018-09-25T01:16:17.231Z,5.00
2018-09-25T01:18:50.857Z,5.00
2018-09-25T01:21:24.889Z,4.90
2018-09-25T01:23:58.361Z,4.80
2018-09-25T01:26:31.850Z,4.70
2018-09-25T01:29:05.543Z,4.60
2018-09-25T01:31:39.365Z,4.60
2018-09-25T01:34:12.965Z,4.60
2018-09-25T01:36:46.537Z,4.60
2018-09-25T01:39:20.077Z,4.50
2018-09-25T01:41:53.537Z,4.50
2018-09-25T01:44:27.245Z,4.50
2018-09-25T01:47:01.081Z,4.50
2018-09-25T01:49:34.689Z,4.60
2018-09-25T01:52:08.289Z,4.50
2018-09-25T01:54:41.970Z,4.60
2018-09-25T01:57:15.616Z,4.50
2018-09-25T01:59:49.152Z,4.50
2018-09-25T02:02:22.868Z,4.50
2018-09-25T02:04:56.579Z,4.40
2018-09-25T02:07:30.265Z,4.30
2018-09-25T02:10:04.497Z,4.40
2018-09-25T02:12:38.107Z,4.40
2018-09-25T02:15:11.588Z,4.30
2018-09-25T02:17:45.409Z,4.30
2018-09-25T02:20:18.934Z,4.40
2018-09-25T02:22:52.503Z,4.40
2018-09-25T02:25:26.149Z,4.50
2018-09-25T02:27:59.735Z,4.60
2018-09-25T02:30:33.480Z,4.60
2018-09-25T02:33:07.111Z,4.50
2018-09-25T02:35:40.789Z,4.40
2018-09-25T02:38:14.134Z,4.30
2018-09-25T02:40:47.788Z,4.20
2018-09-25T02:43:21.521Z,4.00
2018-09-25T02:45:55.222Z,4.00
2018-09-25T02:48:28.905Z,4.00
2018-09-25T02:51:02.453Z,4.00
2018-09-25T02:53:36.112Z,3.90
2018-09-25T02:56:10.809Z,3.90
2018-09-25T02:58:44.268Z,3.80
2018-09-25T03:01:17.892Z,3.80
2018-09-25T03:03:51.417Z,3.80
2018-09-25T03:06:26.425Z,3.80
2018-09-25T03:08:59.993Z,3.90
2018-09-25T03:11:34.366Z,3.90
2018-09-25T03:14:07.974Z,4.00
2018-09-25T03:16:41.702Z,4.10
2018-09-25T03:19:15.305Z,4.30
2018-09-25T03:21:48.881Z,4.40
2018-09-25T03:24:22.427Z,4.60
2018-09-25T03:26:56.118Z,4.50
2018-09-25T03:29:29.533Z,4.50
2018-09-25T03:32:03.380Z,4.50
2018-09-25T03:34:36.917Z,4.60
2018-09-25T03:37:10.581Z,4.80
2018-09-25T03:39:44.303Z,4.80
2018-09-25T03:42:18.390Z,4.80
2018-09-25T03:44:52.602Z,4.70
2018-09-25T03:47:26.263Z,4.80
2018-09-25T03:49:59.955Z,4.70
2018-09-25T03:52:33.464Z,4.60
2018-09-25T03:55:07.066Z,4.60
2018-09-25T03:57:40.750Z,4.60
2018-09-25T04:00:14.449Z,4.60
2018-09-25T04:02:48.103Z,4.70
2018-09-25T04:05:21.481Z,4.50
2018-09-25T04:07:55.247Z,4.40
2018-09-25T04:10:28.813Z,4.40
2018-09-25T04:13:02.456Z,4.30
2018-09-25T04:15:36.109Z,4.40
2018-09-25T04:18:09.858Z,4.50
2018-09-25T04:20:43.574Z,4.40
2018-09-25T04:23:17.138Z,4.50
2018-09-25T04:25:50.821Z,4.50
2018-09-25T04:28:24.421Z,4.40
2018-09-25T04:30:57.962Z,4.40
2018-09-25T04:33:31.437Z,4.40
2018-09-25T04:36:04.812Z,4.30
2018-09-25T04:38:38.245Z,4.20
2018-09-25T04:41:11.998Z,4.10
2018-09-25T04:43:45.506Z,4.10
2018-09-25T04:46:19.199Z,4.10
2018-09-25T04:48:52.871Z,4.00
2018-09-25T04:51:26.619Z,4.00
2018-09-25T04:54:00.357Z,4.00
2018-09-25T04:56:33.954Z,4.00
2018-09-25T04:59:07.370Z,3.90
2018-09-25T05:01:41.418Z,3.90
2018-09-25T05:04:15.320Z,4.00
2018-09-25T05:06:49.328Z,4.00
2018-09-25T05:09:23.253Z,3.90
2018-09-25T05:11:56.973Z,4.10
2018-09-25T05:14:30.388Z,4.10
2018-09-25T05:17:04.134Z,4.10
2018-09-25T05:19:37.780Z,4.10
2018-09-25T05:22:11.421Z,4.10
2018-09-25T05:24:45.029Z,4.10
2018-09-25T05:27:18.735Z,4.10
2018-09-25T05:29:52.397Z,3.90
2018-09-25T05:32:26.032Z,3.80
2018-09-25T05:34:59.774Z,3.80
2018-09-25T05:37:33.533Z,3.70
2018-09-25T05:40:07.118Z,3.70
2018-09-25T05:42:40.797Z,3.70
2018-09-25T05:45:14.389Z,3.70
2018-09-25T05:47:48.041Z,4.10
2018-09-25T05:50:21.606Z,4.80
2018-09-25T05:52:55.110Z,5.60
2018-09-25T05:55:28.981Z,6.40
2018-09-25T05:58:02.574Z,7.00
2018-09-25T06:00:36.351Z,7.50
2018-09-25T06:03:09.800Z,8.00
2018-09-25T06:05:43.259Z,8.60
2018-09-25T06:08:16.863Z,8.80
2018-09-25T06:10:50.506Z,9.30
2018-09-25T06:13:24.154Z,9.80
2018-09-25T06:15:57.733Z,10.10
2018-09-25T06:18:31.460Z,10.60
2018-09-25T06:21:05.121Z,11.00
2018-09-25T06:23:39.095Z,11.30
2018-09-25T06:26:12.766Z,11.60
2018-09-25T06:28:46.405Z,12.20
2018-09-25T06:31:20.001Z,12.80
2018-09-25T06:33:53.629Z,13.20
2018-09-25T06:36:27.125Z,13.50
2018-09-25T06:39:00.778Z,13.80
2018-09-25T06:41:34.320Z,14.10
2018-09-25T06:44:07.908Z,14.80
2018-09-25T06:46:41.579Z,15.40
2018-09-25T06:49:15.155Z,15.60
2018-09-25T06:51:48.840Z,15.80
2018-09-25T06:54:22.522Z,15.40
2018-09-25T06:56:56.745Z,14.00
2018-09-25T06:59:30.433Z,12.80
2018-09-25T07:02:04.446Z,12.40
2018-09-25T07:04:38.864Z,13.00
2018-09-25T07:07:12.597Z,14.20
2018-09-25T07:09:46.236Z,15.00
2018-09-25T07:12:19.809Z,15.70
2018-09-25T07:14:53.278Z,16.50
2018-09-25T07:17:26.630Z,17.40
2018-09-25T07:20:00.242Z,18.00
2018-09-25T07:22:33.796Z,18.30
2018-09-25T07:25:08.047Z,18.90
2018-09-25T07:27:41.393Z,19.30
2018-09-25T07:30:15.077Z,19.70
2018-09-25T07:32:48.585Z,20.60
2018-09-25T07:35:22.690Z,20.90
2018-09-25T07:37:56.109Z,21.00
2018-09-25T07:40:29.806Z,21.50
2018-09-25T07:43:03.357Z,21.90
2018-09-25T07:45:36.944Z,22.20
2018-09-25T07:48:10.614Z,22.30
2018-09-25T07:50:44.266Z,22.80
2018-09-25T07:53:17.800Z,23.30
2018-09-25T07:55:51.266Z,22.90
2018-09-25T07:58:24.937Z,22.40
2018-09-25T08:00:58.549Z,22.00
2018-09-25T08:03:32.020Z,22.10
2018-09-25T08:06:05.593Z,22.40
2018-09-25T08:08:46.853Z,23.30
2018-09-25T08:11:20.476Z,23.90
2018-09-25T08:13:53.870Z,23.90
2018-09-25T08:16:27.433Z,24.00
2018-09-25T08:19:01.149Z,23.40
2018-09-25T08:21:34.548Z,23.40
2018-09-25T08:24:08.204Z,23.70
2018-09-25T08:26:41.852Z,23.30
2018-09-25T08:29:15.461Z,23.30
2018-09-25T08:31:49.021Z,23.40
2018-09-25T08:34:23.205Z,23.60
2018-09-25T08:36:56.895Z,23.80
2018-09-25T08:39:30.525Z,22.50
2018-09-25T08:42:04.120Z,22.60
2018-09-25T08:44:37.615Z,22.70
2018-09-25T08:47:11.379Z,22.30
2018-09-25T08:49:45.118Z,23.00
2018-09-25T08:52:18.809Z,23.80
2018-09-25T08:54:52.444Z,23.80
2018-09-25T08:57:26.459Z,23.60
2018-09-25T09:00:00.033Z,24.10
2018-09-25T09:02:33.722Z,24.20
2018-09-25T09:05:07.310Z,24.90
2018-09-25T09:07:40.997Z,26.00
2018-09-25T09:10:14.486Z,26.10
2018-09-25T09:12:48.122Z,24.10
2018-09-25T09:15:21.759Z,23.10
2018-09-25T09:17:55.426Z,21.00
2018-09-25T09:20:29.027Z,20.70
2018-09-25T09:23:02.632Z,21.50
2018-09-25T09:25:36.195Z,21.60
2018-09-25T09:28:10.086Z,21.50
2018-09-25T09:30:43.678Z,21.80
2018-09-25T09:33:17.344Z,21.50
2018-09-25T09:35:50.943Z,20.70
2018-09-25T09:38:24.564Z,20.10
2018-09-25T09:40:58.267Z,20.30
2018-09-25T09:43:31.854Z,20.60
2018-09-25T09:46:05.515Z,21.20
2018-09-25T09:48:39.230Z,22.40
2018-09-25T09:51:12.908Z,22.80
2018-09-25T09:53:46.388Z,22.70
2018-09-25T09:56:20.178Z,23.80
2018-09-25T09:58:53.750Z,23.30
2018-09-25T10:01:27.310Z,22.00
2018-09-25T10:04:00.953Z,20.90
2018-09-25T10:06:34.511Z,21.00
2018-09-25T10:09:08.917Z,20.60
2018-09-25T10:11:42.918Z,20.10
2018-09-25T10:14:16.682Z,19.50
2018-09-25T10:16:50.065Z,19.20
2018-09-25T10:19:24.245Z,20.20
2018-09-25T10:21:57.656Z,20.20
2018-09-25T10:24:31.865Z,19.70
2018-09-25T10:27:05.323Z,19.60
2018-09-25T10:29:39.337Z,20.20
2018-09-25T10:32:12.957Z,20.00
2018-09-25T10:34:47.256Z,19.80
2018-09-25T10:37:20.879Z,19.50
2018-09-25T10:39:54.542Z,19.80
2018-09-25T10:42:28.169Z,19.60
2018-09-25T10:45:01.745Z,19.30
2018-09-25T10:47:35.325Z,19.30
2018-09-25T10:50:08.971Z,19.30
2018-09-25T10:52:42.337Z,19.80
2018-09-25T10:55:16.312Z,19.20
2018-09-25T10:57:49.959Z,19.10
2018-09-25T11:00:23.497Z,19.50
2018-09-25T11:02:57.161Z,19.40
2018-09-25T11:05:30.509Z,19.30
2018-09-25T11:08:04.045Z,19.10
2018-09-25T11:10:37.602Z,19.60
2018-09-25T11:13:11.253Z,19.60
2018-09-25T11:15:44.707Z,19.20
2018-09-25T11:18:18.836Z,19.10
2018-09-25T11:20:52.751Z,19.10
2018-09-25T11:23:27.345Z,19.60
2018-09-25T11:26:00.941Z,20.20
2018-09-25T11:28:34.449Z,19.70
2018-09-25T11:31:07.991Z,19.50
2018-09-25T11:33:41.698Z,19.70
2018-09-25T11:36:15.228Z,19.70
2018-09-25T11:38:48.638Z,19.50
2018-09-25T11:41:22.193Z,19.50
2018-09-25T11:43:56.498Z,19.80
2018-09-25T11:46:30.511Z,20.00
2018-09-25T11:49:04.015Z,19.40
2018-09-25T11:51:37.681Z,19.90
2018-09-25T11:54:11.321Z,19.80
2018-09-25T11:56:44.926Z,20.30
2018-09-25T11:59:18.450Z,20.10
2018-09-25T12:01:51.962Z,20.50
2018-09-25T12:04:25.635Z,20.70
2018-09-25T12:06:59.085Z,21.10
2018-09-25T12:09:32.658Z,21.20
2018-09-25T12:12:06.169Z,22.20
2018-09-25T12:14:39.791Z,23.30
2018-09-25T12:17:13.291Z,24.40
2018-09-25T12:19:46.903Z,23.70
2018-09-25T12:22:20.484Z,21.30
2018-09-25T12:24:53.992Z,20.20
2018-09-25T12:27:27.545Z,19.50
2018-09-25T12:30:00.920Z,19.80
2018-09-25T12:32:34.693Z,19.60
2018-09-25T12:35:08.365Z,20.20
2018-09-25T12:37:42.106Z,21.60
2018-09-25T12:40:16.090Z,22.40
2018-09-25T12:42:50.077Z,20.80
2018-09-25T12:45:23.565Z,18.60
2018-09-25T12:47:57.381Z,17.60
2018-09-25T12:50:30.960Z,16.80
2018-09-25T12:53:04.506Z,17.00
2018-09-25T12:55:38.058Z,18.50
2018-09-25T12:58:11.720Z,19.30
2018-09-25T13:00:45.173Z,18.70
2018-09-25T13:03:18.697Z,17.90
2018-09-25T13:05:52.380Z,17.10
2018-09-25T13:08:25.793Z,17.20
2018-09-25T13:10:59.413Z,17.30
2018-09-25T13:13:33.103Z,18.30
2018-09-25T13:16:06.749Z,19.10
2018-09-25T13:18:40.244Z,20.00
2018-09-25T13:21:13.638Z,21.50
2018-09-25T13:23:47.622Z,20.20
2018-09-25T13:26:21.277Z,18.80
2018-09-25T13:28:55.194Z,18.30
2018-09-25T13:31:28.835Z,18.20
2018-09-25T13:34:02.341Z,17.80
2018-09-25T13:36:35.945Z,17.40
2018-09-25T13:39:12.881Z,16.90
2018-09-25T13:41:46.780Z,16.70
2018-09-25T13:44:20.367Z,16.50
2018-09-25T13:46:54.306Z,15.90
2018-09-25T13:49:27.879Z,15.40
2018-09-25T13:52:01.421Z,15.10
2018-09-25T13:54:34.932Z,16.10
2018-09-25T13:57:08.413Z,17.80
2018-09-25T13:59:42.126Z,18.00
2018-09-25T14:02:15.700Z,18.70
2018-09-25T14:04:49.253Z,19.20
2018-09-25T14:07:22.902Z,19.70
2018-09-25T14:09:56.451Z,19.50
2018-09-25T14:12:30.177Z,18.70
2018-09-25T14:15:03.797Z,18.20
2018-09-25T14:17:37.348Z,18.50
2018-09-25T14:20:11.102Z,17.70
2018-09-25T14:22:45.069Z,17.90
2018-09-25T14:25:18.794Z,17.50
2018-09-25T14:27:52.413Z,17.30
2018-09-25T14:30:26.764Z,16.30
2018-09-25T14:33:00.457Z,15.90
2018-09-25T14:35:35.689Z,16.40
2018-09-25T14:38:09.253Z,15.90
2018-09-25T14:40:43.508Z,16.40
2018-09-25T14:43:17.117Z,16.50
2018-09-25T14:45:50.642Z,16.30
2018-09-25T14:48:24.365Z,17.00
2018-09-25T14:50:58.821Z,17.70
2018-09-25T14:53:32.440Z,17.90
2018-09-25T14:56:07.944Z,17.80
2018-09-25T14:58:41.645Z,17.50
2018-09-25T15:01:15.201Z,17.50
2018-09-25T15:03:48.954Z,18.20
2018-09-25T15:06:22.528Z,18.70
2018-09-25T15:08:56.221Z,18.50
2018-09-25T15:11:30.075Z,18.40
2018-09-25T15:14:03.756Z,18.00
2018-09-25T15:16:37.397Z,17.60
2018-09-25T15:19:11.257Z,17.50
2018-09-25T15:21:45.035Z,17.80
2018-09-25T15:24:18.643Z,17.90
2018-09-25T15:26:52.157Z,17.60
2018-09-25T15:29:26.544Z,17.90
2018-09-25T15:32:00.130Z,18.20
2018-09-25T15:34:33.762Z,18.50
2018-09-25T15:37:07.406Z,18.60
2018-09-25T15:39:40.782Z,17.90
2018-09-25T15:42:14.837Z,16.70
2018-09-25T15:44:48.444Z,16.30
2018-09-25T15:47:22.174Z,15.90
2018-09-25T15:49:55.809Z,15.00
2018-09-25T15:52:29.421Z,14.50
2018-09-25T15:55:02.995Z,14.30
2018-09-25T15:57:36.524Z,13.90
2018-09-25T16:00:10.215Z,13.80
2018-09-25T16:02:43.918Z,13.90
2018-09-25T16:05:17.456Z,13.90
2018-09-25T16:07:50.995Z,13.60
2018-09-25T16:10:24.649Z,13.50
2018-09-25T16:12:58.213Z,13.60
2018-09-25T16:15:31.888Z,13.40
2018-09-25T16:18:05.477Z,13.60
2018-09-25T16:20:39.053Z,13.70
2018-09-25T16:23:12.703Z,13.50
2018-09-25T16:25:47.292Z,13.50
2018-09-25T16:28:20.840Z,13.40
2018-09-25T16:30:54.604Z,13.20
2018-09-25T16:33:28.253Z,13.10
2018-09-25T16:36:01.733Z,13.10
2018-09-25T16:38:35.289Z,13.20
2018-09-25T16:41:08.883Z,13.10
2018-09-25T16:43:42.353Z,13.10
2018-09-25T16:46:16.296Z,13.00
2018-09-25T16:48:49.825Z,13.00
2018-09-25T16:51:23.491Z,12.80
2018-09-25T16:53:57.178Z,12.70
2018-09-25T16:56:30.880Z,12.60
2018-09-25T16:59:04.557Z,12.40
2018-09-25T17:01:38.066Z,12.30
2018-09-25T17:04:11.713Z,12.10
2018-09-25T17:06:45.061Z,12.00
2018-09-25T17:09:18.554Z,11.90
2018-09-25T17:11:52.172Z,11.70
2018-09-25T17:14:25.914Z,11.50
2018-09-25T17:16:59.435Z,11.20
2018-09-25T17:19:33.017Z,11.10
2018-09-25T17:22:06.693Z,11.00
2018-09-25T17:24:40.224Z,10.70
2018-09-25T17:27:13.606Z,10.50
2018-09-25T17:29:47.133Z,10.40
2018-09-25T17:32:21.020Z,10.30
2018-09-25T17:34:54.634Z,9.90
2018-09-25T17:37:28.242Z,9.50
2018-09-25T17:40:01.883Z,9.30
2018-09-25T17:42:35.312Z,9.10
2018-09-25T17:45:09.472Z,9.00
2018-09-25T17:47:43.094Z,8.90
2018-09-25T17:50:16.730Z,8.80
2018-09-25T17:52:50.357Z,8.80
2018-09-25T17:55:23.865Z,8.90
2018-09-25T17:57:57.266Z,8.90
2018-09-25T18:00:31.085Z,8.80
2018-09-25T18:03:04.704Z,8.60
2018-09-25T18:05:38.180Z,8.50
2018-09-25T18:08:11.941Z,8.30
2018-09-25T18:10:45.388Z,8.30
2018-09-25T18:13:19.045Z,8.20
2018-09-25T18:15:52.743Z,8.20
2018-09-25T18:18:26.298Z,8.10
2018-09-25T18:20:59.781Z,7.80
2018-09-25T18:23:33.413Z,7.70
2018-09-25T18:26:06.988Z,7.60
2018-09-25T18:28:40.594Z,7.60
2018-09-25T18:31:15.091Z,7.60
2018-09-25T18:33:48.605Z,7.60
2018-09-25T18:36:22.749Z,7.50
2018-09-25T18:38:56.313Z,7.30
2018-09-25T18:41:29.838Z,7.30
2018-09-25T18:44:03.556Z,7.40
2018-09-25T18:46:37.222Z,7.30
2018-09-25T18:49:10.864Z,7.20
2018-09-25T18:51:44.706Z,7.10
2018-09-25T18:54:18.396Z,7.10
2018-09-25T18:56:52.070Z,7.10
2018-09-25T18:59:25.761Z,7.10
2018-09-25T19:01:59.313Z,6.90
2018-09-25T19:04:32.922Z,6.70
2018-09-25T19:07:06.322Z,6.70
2018-09-25T19:09:39.978Z,6.80
2018-09-25T19:12:13.673Z,6.90
2018-09-25T19:14:47.256Z,6.90
2018-09-25T19:17:20.887Z,6.80
2018-09-25T19:19:54.398Z,6.60
2018-09-25T19:22:27.950Z,6.50
2018-09-25T19:25:01.653Z,6.60
2018-09-25T19:27:35.394Z,6.60
2018-09-25T19:30:08.809Z,6.70
2018-09-25T19:32:42.426Z,6.70
2018-09-25T19:35:15.934Z,6.60
2018-09-25T19:37:49.589Z,6.50
2018-09-25T19:40:23.362Z,6.40
2018-09-25T19:42:57.280Z,6.30
2018-09-25T19:45:30.787Z,6.30
2018-09-25T19:48:04.425Z,6.30
2018-09-25T19:50:38.952Z,6.10
2018-09-25T19:53:12.441Z,6.10
2018-09-25T19:55:46.142Z,6.00
2018-09-25T19:58:20.145Z,6.00
2018-09-25T20:00:53.739Z,6.00
2018-09-25T20:03:27.398Z,5.90
2018-09-25T20:06:00.860Z,5.90
2018-09-25T20:08:34.541Z,5.20
2018-09-25T20:11:08.137Z,5.80
2018-09-25T20:13:41.718Z,5.80
2018-09-25T20:16:16.651Z,5.60
2018-09-25T20:18:50.341Z,5.60
2018-09-25T20:21:23.906Z,5.50
2018-09-25T20:23:57.552Z,5.40
2018-09-25T20:26:31.111Z,5.40
2018-09-25T20:29:04.725Z,5.30
2018-09-25T20:31:38.196Z,5.40
2018-09-25T20:34:12.334Z,5.50
2018-09-25T20:36:45.965Z,5.50
2018-09-25T20:39:19.440Z,5.30
2018-09-25T20:41:53.153Z,5.20
2018-09-25T20:44:26.701Z,5.20
2018-09-25T20:47:00.415Z,5.30
2018-09-25T20:49:34.165Z,5.30
2018-09-25T20:55:57.002Z,5.20
2018-09-25T20:58:42.041Z,5.20
2018-09-25T21:01:26.440Z,5.20
2018-09-25T21:04:18.264Z,5.10
2018-09-25T21:07:16.111Z,5.00
2018-09-25T21:13:30.738Z,5.10
2018-09-25T21:25:32.781Z,4.70
2018-09-25T21:28:16.711Z,4.60
2018-09-25T21:30:57.602Z,4.60
2018-09-25T21:33:39.568Z,4.60
2018-09-25T21:40:01.456Z,4.50
2018-09-25T21:43:05.167Z,4.40
2018-09-25T21:45:45.821Z,4.40
2018-09-25T21:48:33.220Z,4.60
2018-09-25T21:51:19.724Z,4.70
2018-09-25T21:53:59.756Z,4.70
2018-09-25T21:56:50.778Z,4.80
2018-09-25T21:59:35.053Z,4.80
2018-09-25T22:02:13.546Z,4.90
2018-09-25T22:04:56.726Z,4.80
2018-09-25T22:07:35.278Z,4.70
2018-09-25T22:10:16.524Z,4.70
2018-09-25T22:12:55.863Z,4.80
2018-09-25T22:15:38.529Z,4.80
2018-09-25T22:18:22.397Z,4.80
2018-09-25T22:21:05.253Z,4.70
2018-09-25T22:23:47.728Z,4.60
2018-09-25T22:26:34.442Z,4.40
2018-09-25T22:31:59.407Z,4.10
2018-09-25T22:34:46.295Z,4.00
2018-09-25T22:37:20.046Z,4.00
2018-09-25T22:39:53.710Z,4.10
2018-09-25T22:42:27.376Z,4.10
2018-09-25T22:45:00.865Z,4.00
2018-09-25T22:47:35.607Z,4.10
2018-09-25T22:50:09.241Z,4.10
2018-09-25T22:52:42.749Z,4.20
2018-09-25T22:55:16.454Z,4.20
2018-09-25T22:57:50.093Z,4.20
2018-09-25T23:00:24.090Z,4.30
2018-09-25T23:02:57.721Z,4.30
2018-09-25T23:05:31.237Z,4.30
2018-09-25T23:08:04.753Z,4.30
2018-09-25T23:10:38.430Z,4.30
2018-09-25T23:13:12.093Z,4.40
2018-09-25T23:15:45.889Z,4.40
2018-09-25T23:18:19.543Z,4.20
2018-09-25T23:20:53.180Z,4.10
2018-09-25T23:23:26.713Z,4.10
2018-09-25T23:26:00.497Z,4.10
2018-09-25T23:28:33.979Z,4.00
2018-09-25T23:31:07.457Z,4.00
2018-09-25T23:33:41.197Z,3.90
2018-09-25T23:36:14.807Z,3.90
2018-09-25T23:38:48.546Z,3.90
2018-09-25T23:41:27.810Z,4.10
2018-09-25T23:44:01.609Z,4.40
2018-09-25T23:46:35.433Z,4.50
2018-09-25T23:49:08.777Z,4.60
2018-09-25T23:51:39.372Z,4.60
2018-09-25T23:54:20.740Z,4.60
2018-09-25T23:56:53.785Z,4.50
2018-09-25T23:59:30.410Z,4.50
